| time (UTC) | temp C | wind direction | speed KPH | gust KPH | rain 1hr cm | rain 24hr cm | rain mn cm | humidity % | barometer mb |
| 20260510202222 | 10 | 124 | 6.4 | 8.0 | 0.00 | 0.00 | 0.00 | 62 | 1003.4 |
| 20260510201229 | 10 | 115 | 1.6 | 3.2 | 0.00 | 0.00 | 0.00 | 62 | 1003.5 |
| 20260510200222 | 10 | 75 | 0.0 | 3.2 | 0.00 | 0.00 | 0.00 | 61 | 1003.7 |
| 20260510195249 | 10 | 0.0 | 0.0 | 0.00 | 0.00 | 0.00 | 60 | 1003.6 | |
| 20260510194230 | 11 | 54 | 0.0 | 3.2 | 0.00 | 0.00 | 0.00 | 59 | 1003.7 |
| 20260510193229 | 11 | 101 | 1.6 | 3.2 | 0.00 | 0.00 | 0.00 | 59 | 1003.7 |
| 20260510192222 | 11 | 127 | 4.8 | 8.0 | 0.00 | 0.00 | 0.00 | 58 | 1003.7 |
| 20260510191230 | 11 | 90 | 1.6 | 3.2 | 0.00 | 0.00 | 0.00 | 59 | 1003.7 |
| 20260510190230 | 11 | 0.0 | 0.0 | 0.00 | 0.00 | 0.00 | 58 | 1004.0 | |
| 20260510185229 | 11 | 128 | 3.2 | 8.0 | 0.00 | 0.00 | 0.00 | 56 | 1004.0 |
| 20260510184222 | 11 | 89 | 0.0 | 3.2 | 0.00 | 0.00 | 0.00 | 57 | 1004.0 |
| 20260510183230 | 12 | 0.0 | 0.0 | 0.00 | 0.00 | 0.00 | 56 | 1004.0 | |
| 20260510182230 | 12 | 0.0 | 0.0 | 0.00 | 0.00 | 0.00 | 55 | 1004.4 | |
| 20260510181230 | 13 | 0.0 | 0.0 | 0.00 | 0.00 | 0.00 | 52 | 1004.3 | |
| 20260510180221 | 13 | 0.0 | 0.0 | 0.00 | 0.00 | 0.00 | 53 | 1004.3 | |
| 20260510175250 | 13 | 0.0 | 0.0 | 0.00 | 0.00 | 0.00 | 50 | 1004.7 | |
| 20260510174229 | 12 | 101 | 1.6 | 3.2 | 0.00 | 0.00 | 0.00 | 49 | 1004.6 |
| 20260510173229 | 12 | 0.0 | 0.0 | 0.00 | 0.00 | 0.00 | 52 | 1004.8 | |
| 20260510172221 | 13 | 0.0 | 0.0 | 0.00 | 0.00 | 0.00 | 53 | 1004.7 | |
| 20260510171230 | 14 | 29 | 1.6 | 3.2 | 0.00 | 0.00 | 0.00 | 52 | 1005.0 |
| 20260510170229 | 14 | 28 | 3.2 | 8.0 | 0.00 | 0.00 | 0.00 | 49 | 1005.0 |
| 20260510165250 | 14 | 70 | 0.0 | 3.2 | 0.00 | 0.00 | 0.00 | 47 | 1005.4 |
| 20260510164230 | 14 | 149 | 4.8 | 8.0 | 0.00 | 0.00 | 0.00 | 48 | 1005.4 |
| 20260510163250 | 14 | 156 | 1.6 | 8.0 | 0.00 | 0.00 | 0.00 | 47 | 1005.4 |
| 20260510162222 | 13 | 102 | 0.0 | 3.2 | 0.00 | 0.00 | 0.00 | 47 | 1005.3 |
| 20260510161230 | 13 | 53 | 3.2 | 8.0 | 0.00 | 0.00 | 0.00 | 48 | 1005.7 |
| 20260510160230 | 12 | 108 | 0.0 | 3.2 | 0.00 | 0.00 | 0.00 | 50 | 1005.8 |
| 20260510155231 | 12 | 6 | 1.6 | 3.2 | 0.00 | 0.00 | 0.00 | 52 | 1006.0 |
| 20260510154250 | 13 | 70 | 3.2 | 8.0 | 0.00 | 0.00 | 0.00 | 53 | 1006.4 |
| 20260510153229 | 13 | 332 | 9.7 | 16.1 | 0.00 | 0.00 | 0.00 | 50 | 1006.4 |
| 20260510152230 | 13 | 48 | 0.0 | 3.2 | 0.00 | 0.00 | 0.00 | 50 | 1006.6 |
| 20260510151250 | 13 | 355 | 1.6 | 3.2 | 0.00 | 0.00 | 0.00 | 50 | 1006.8 |
| 20260510150221 | 13 | 0 | 3.2 | 8.0 | 0.00 | 0.00 | 0.00 | 49 | 1006.7 |
| 20260510145229 | 13 | 9 | 1.6 | 8.0 | 0.00 | 0.00 | 0.00 | 46 | 1006.9 |
| 20260510144221 | 13 | 117 | 4.8 | 8.0 | 0.00 | 0.00 | 0.00 | 47 | 1007.1 |
| 20260510143230 | 13 | 129 | 3.2 | 8.0 | 0.00 | 0.00 | 0.00 | 48 | 1007.1 |
| 20260510142221 | 13 | 11 | 4.8 | 12.9 | 0.00 | 0.00 | 0.00 | 47 | 1007.4 |
| 20260510141229 | 13 | 17 | 3.2 | 8.0 | 0.00 | 0.00 | 0.00 | 46 | 1007.4 |
| 20260510140242 | 13 | 52 | 1.6 | 3.2 | 0.00 | 0.00 | 0.00 | 49 | 1007.4 |
| 20260510135231 | 13 | 308 | 1.6 | 8.0 | 0.00 | 0.00 | 0.00 | 48 | 1007.4 |
| 20260510134221 | 13 | 128 | 3.2 | 8.0 | 0.00 | 0.00 | 0.00 | 44 | 1007.4 |
| 20260510133230 | 13 | 20 | 4.8 | 8.0 | 0.00 | 0.00 | 0.00 | 47 | 1007.8 |
| 20260510132221 | 13 | 12 | 1.6 | 8.0 | 0.00 | 0.00 | 0.00 | 47 | 1008.1 |
| 20260510131230 | 13 | 36 | 3.2 | 8.0 | 0.00 | 0.00 | 0.00 | 47 | 1008.1 |
| 20260510130221 | 13 | 38 | 1.6 | 3.2 | 0.00 | 0.00 | 0.00 | 49 | 1008.1 |
| 20260510125229 | 13 | 44 | 3.2 | 8.0 | 0.00 | 0.00 | 0.00 | 45 | 1008.1 |
| 20260510124224 | 13 | 97 | 0.0 | 3.2 | 0.00 | 0.00 | 0.00 | 46 | 1008.1 |
| 20260510123229 | 13 | 3 | 1.6 | 3.2 | 0.00 | 0.00 | 0.00 | 49 | 1008.5 |
| 20260510122221 | 13 | 22 | 4.8 | 8.0 | 0.00 | 0.00 | 0.00 | 50 | 1008.5 |
| 20260510121229 | 13 | 26 | 3.2 | 8.0 | 0.00 | 0.00 | 0.00 | 46 | 1008.5 |
| 20260510120222 | 13 | 46 | 1.6 | 3.2 | 0.00 | 0.00 | 0.00 | 45 | 1008.5 |
| 20260510115230 | 13 | 70 | 1.6 | 3.2 | 0.00 | 0.00 | 0.00 | 48 | 1008.8 |
| 20260510114221 | 13 | 62 | 1.6 | 3.2 | 0.00 | 0.00 | 0.00 | 51 | 1008.8 |
| 20260510113229 | 13 | 45 | 3.2 | 8.0 | 0.00 | 0.00 | 0.00 | 49 | 1009.0 |
| 20260510112222 | 13 | 137 | 3.2 | 8.0 | 0.00 | 0.00 | 0.00 | 51 | 1008.8 |
| 20260510111229 | 13 | 163 | 3.2 | 8.0 | 0.00 | 0.00 | 0.00 | 50 | 1009.1 |
| 20260510110221 | 12 | 307 | 4.8 | 8.0 | 0.00 | 0.00 | 0.00 | 52 | 1009.1 |
| 20260510105249 | 12 | 123 | 6.4 | 8.0 | 0.00 | 0.00 | 0.00 | 48 | 1009.4 |
| 20260510104241 | 11 | 79 | 4.8 | 8.0 | 0.00 | 0.00 | 0.00 | 55 | 1009.4 |
| 20260510103255 | 11 | 8 | 1.6 | 3.2 | 0.00 | 0.00 | 0.00 | 56 | 1009.4 |
| 20260510102221 | 12 | 341 | 9.7 | 16.1 | 0.00 | 0.00 | 0.00 | 58 | 1009.8 |
| 20260510101249 | 12 | 139 | 1.6 | 3.2 | 0.00 | 0.00 | 0.00 | 58 | 1009.8 |
| 20260510100221 | 12 | 51 | 4.8 | 8.0 | 0.00 | 0.00 | 0.00 | 57 | 1010.1 |
| 20260510095229 | 11 | 67 | 3.2 | 8.0 | 0.00 | 0.00 | 0.00 | 55 | 1010.0 |
| 20260510094221 | 11 | 59 | 3.2 | 3.2 | 0.00 | 0.00 | 0.00 | 59 | 1010.1 |
| 20260510093229 | 11 | 25 | 9.7 | 20.9 | 0.00 | 0.00 | 0.00 | 59 | 1010.1 |
| 20260510092229 | 11 | 77 | 1.6 | 3.2 | 0.00 | 0.00 | 0.00 | 58 | 1010.1 |
| 20260510090829 | 11 | 141 | 3.2 | 12.9 | 0.00 | 0.00 | 0.00 | 59 | 1010.4 |
| 20260510085842 | 11 | 82 | 3.2 | 8.0 | 0.00 | 0.00 | 0.00 | 59 | 1010.4 |
| 20260510084829 | 11 | 77 | 3.2 | 12.9 | 0.00 | 0.00 | 0.00 | 63 | 1010.4 |
| 20260510083821 | 11 | 63 | 1.6 | 3.2 | 0.00 | 0.00 | 0.00 | 62 | 1010.5 |
| 20260510082830 | 11 | 141 | 4.8 | 8.0 | 0.00 | 0.00 | 0.00 | 60 | 1010.4 |
| 20260510081821 | 11 | 25 | 1.6 | 3.2 | 0.00 | 0.00 | 0.00 | 69 | 1010.4 |
| 20260510080829 | 11 | 29 | 1.6 | 3.2 | 0.00 | 0.00 | 0.00 | 71 | 1010.4 |
| 20260510075821 | 11 | 27 | 3.2 | 8.0 | 0.00 | 0.00 | 0.00 | 69 | 1010.4 |
| 20260510074829 | 10 | 36 | 3.2 | 8.0 | 0.00 | 0.00 | 0.00 | 69 | 1010.4 |
| 20260510073821 | 10 | 0.0 | 0.0 | 0.00 | 0.00 | 0.00 | 69 | 1010.8 | |
| 20260510072849 | 10 | 34 | 3.2 | 8.0 | 0.00 | 0.00 | 0.00 | 72 | 1010.4 |
| 20260510071821 | 10 | 7 | 3.2 | 8.0 | 0.00 | 0.00 | 0.00 | 74 | 1010.4 |
| 20260510070829 | 10 | 68 | 0.0 | 3.2 | 0.00 | 0.00 | 0.00 | 72 | 1010.4 |
| 20260510065821 | 9 | 67 | 3.2 | 8.0 | 0.00 | 0.00 | 0.00 | 75 | 1010.4 |
| 20260510064830 | 9 | 73 | 1.6 | 3.2 | 0.00 | 0.00 | 0.00 | 74 | 1010.4 |
| 20260510063821 | 8 | 0.0 | 0.0 | 0.00 | 0.00 | 0.00 | 77 | 1010.7 | |
| 20260510062829 | 7 | 0.0 | 0.0 | 0.00 | 0.00 | 0.00 | 79 | 1010.4 | |
| 20260510061821 | 7 | 293 | 3.2 | 8.0 | 0.00 | 0.00 | 0.00 | 82 | 1010.4 |
| 20260510060850 | 6 | 43 | 0.0 | 3.2 | 0.00 | 0.00 | 0.00 | 85 | 1010.4 |
| 20260510055821 | 6 | 0.0 | 0.0 | 0.00 | 0.00 | 0.00 | 89 | 1010.4 | |
| 20260510054829 | 5 | 37 | 1.6 | 3.2 | 0.00 | 0.00 | 0.00 | 90 | 1010.3 |
| 20260510053901 | 5 | 42 | 1.6 | 3.2 | 0.00 | 0.00 | 0.00 | 91 | 1010.4 |
| 20260510052829 | 5 | 28 | 1.6 | 3.2 | 0.00 | 0.00 | 0.00 | 92 | 1010.4 |
| 20260510051822 | 5 | 49 | 0.0 | 3.2 | 0.00 | 0.00 | 0.00 | 92 | 1010.4 |
| 20260510050830 | 5 | 201 | 1.6 | 3.2 | 0.00 | 0.00 | 0.00 | 92 | 1010.4 |
| 20260510045821 | 5 | 0.0 | 0.0 | 0.00 | 0.00 | 0.00 | 92 | 1010.4 | |
| 20260510044829 | 5 | 38 | 0.0 | 3.2 | 0.00 | 0.00 | 0.00 | 92 | 1010.4 |
| 20260510043841 | 5 | 0.0 | 0.0 | 0.00 | 0.00 | 0.00 | 93 | 1010.4 | |
| 20260510042830 | 5 | 0.0 | 0.0 | 0.00 | 0.00 | 0.00 | 92 | 1010.4 | |
| 20260510041821 | 5 | 0.0 | 0.0 | 0.00 | 0.00 | 0.00 | 92 | 1010.4 | |
| 20260510040829 | 5 | 17 | 1.6 | 3.2 | 0.00 | 0.00 | 0.00 | 92 | 1010.1 |
| 20260510035910 | 6 | 45 | 0.0 | 3.2 | 0.00 | 0.00 | 0.00 | 92 | 1010.2 |
| 20260510034830 | 6 | 0.0 | 0.0 | 0.00 | 0.00 | 0.00 | 92 | 1010.2 | |
| 20260510033821 | 6 | 28 | 0.0 | 3.2 | 0.00 | 0.00 | 0.00 | 91 | 1010.4 |
| 20260510032830 | 6 | 6 | 0.0 | 3.2 | 0.00 | 0.00 | 0.00 | 90 | 1010.6 |
| 20260510031830 | 6 | 16 | 1.6 | 3.2 | 0.00 | 0.00 | 0.00 | 90 | 1010.8 |
| 20260510030829 | 7 | 60 | 0.0 | 3.2 | 0.00 | 0.00 | 0.00 | 89 | 1010.8 |
| 20260510025821 | 7 | 282 | 3.2 | 8.0 | 0.00 | 0.00 | 0.00 | 89 | 1010.8 |
| 20260510024829 | 7 | 29 | 0.0 | 3.2 | 0.00 | 0.00 | 0.00 | 88 | 1010.8 |
| 20260510023849 | 7 | 1 | 1.6 | 3.2 | 0.00 | 0.00 | 0.00 | 87 | 1010.8 |
| 20260510022829 | 7 | 24 | 1.6 | 3.2 | 0.00 | 0.00 | 0.00 | 87 | 1010.8 |
| 20260510021821 | 7 | 51 | 0.0 | 3.2 | 0.00 | 0.00 | 0.00 | 87 | 1010.8 |
| 20260510020850 | 7 | 60 | 0.0 | 3.2 | 0.00 | 0.00 | 0.00 | 87 | 1010.9 |
| 20260510015850 | 7 | 283 | 3.2 | 8.0 | 0.00 | 0.00 | 0.00 | 87 | 1010.9 |
| 20260510014829 | 7 | 18 | 1.6 | 3.2 | 0.00 | 0.00 | 0.00 | 87 | 1010.5 |
| 20260510013821 | 8 | 98 | 1.6 | 8.0 | 0.00 | 0.00 | 0.00 | 87 | 1010.6 |
| 20260510012829 | 8 | 53 | 0.0 | 3.2 | 0.00 | 0.00 | 0.00 | 87 | 1010.7 |
| 20260510011829 | 8 | 61 | 1.6 | 3.2 | 0.00 | 0.00 | 0.00 | 86 | 1010.7 |
| 20260510010850 | 8 | 15 | 3.2 | 3.2 | 0.00 | 0.00 | 0.00 | 86 | 1010.9 |
| 20260510005821 | 8 | 56 | 1.6 | 3.2 | 0.00 | 0.00 | 0.00 | 86 | 1010.9 |
| 20260510004829 | 8 | 57 | 1.6 | 3.2 | 0.00 | 0.00 | 0.00 | 86 | 1010.9 |
| 20260510003829 | 8 | 56 | 3.2 | 8.0 | 0.00 | 0.00 | 0.00 | 86 | 1010.9 |
| 20260510002829 | 8 | 16 | 1.6 | 8.0 | 0.00 | 0.00 | 0.00 | 86 | 1010.9 |
| 20260510001821 | 8 | 0.0 | 0.0 | 0.00 | 0.00 | 0.00 | 86 | 1010.9 | |
| 20260510000829 | 8 | 0.0 | 0.0 | 0.00 | 0.00 | 0.00 | 86 | 1010.9 | |
| 20260509235829 | 8 | 37 | 6.4 | 12.9 | 0.00 | 0.00 | 0.00 | 86 | 1010.9 |
| 20260509234849 | 8 | 51 | 0.0 | 3.2 | 0.00 | 0.00 | 0.00 | 87 | 1010.9 |
| 20260509233821 | 8 | 12 | 8.0 | 12.9 | 0.00 | 0.00 | 0.00 | 87 | 1010.9 |
| 20260509232829 | 8 | 286 | 1.6 | 3.2 | 0.00 | 0.00 | 0.00 | 87 | 1011.0 |
| 20260509231849 | 8 | 0.0 | 0.0 | 0.00 | 0.00 | 0.00 | 87 | 1011.0 | |
| 20260509230829 | 8 | 299 | 1.6 | 3.2 | 0.00 | 0.00 | 0.00 | 87 | 1011.1 |
| 20260509225821 | 8 | 31 | 3.2 | 8.0 | 0.00 | 0.00 | 0.00 | 87 | 1010.9 |
| 20260509224829 | 8 | 57 | 1.6 | 8.0 | 0.00 | 0.00 | 0.00 | 87 | 1010.9 |
| 20260509223909 | 8 | 4 | 8.0 | 8.0 | 0.00 | 0.00 | 0.00 | 87 | 1010.8 |
| 20260509222829 | 8 | 328 | 4.8 | 8.0 | 0.00 | 0.00 | 0.00 | 88 | 1010.8 |
| 20260509221821 | 8 | 13 | 4.8 | 12.9 | 0.00 | 0.00 | 0.00 | 89 | 1010.8 |
| 20260509220829 | 8 | 331 | 3.2 | 8.0 | 0.00 | 0.00 | 0.00 | 89 | 1010.8 |
| 20260509215829 | 8 | 34 | 0.0 | 3.2 | 0.00 | 0.00 | 0.00 | 89 | 1010.8 |
| 20260509214849 | 8 | 5 | 1.6 | 8.0 | 0.00 | 0.00 | 0.00 | 89 | 1010.8 |
| 20260509213821 | 8 | 44 | 0.0 | 3.2 | 0.00 | 0.00 | 0.00 | 89 | 1010.8 |
| 20260509212829 | 8 | 30 | 3.2 | 3.2 | 0.00 | 0.00 | 0.00 | 89 | 1010.7 |
| 20260509211829 | 8 | 30 | 3.2 | 8.0 | 0.00 | 0.00 | 0.00 | 90 | 1010.7 |
| 20260509210909 | 8 | 115 | 1.6 | 3.2 | 0.00 | 0.00 | 0.00 | 91 | 1010.5 |
| 20260509205901 | 8 | 5 | 4.8 | 8.0 | 0.00 | 0.00 | 0.00 | 91 | 1010.5 |
| 20260509204829 | 8 | 25 | 1.6 | 3.2 | 0.00 | 0.00 | 0.00 | 92 | 1010.6 |
| 20260509203829 | 8 | 57 | 1.6 | 3.2 | 0.00 | 0.00 | 0.00 | 92 | 1010.5 |
| 20260509202829 | 8 | 34 | 1.6 | 8.0 | 0.00 | 0.00 | 0.00 | 93 | 1010.5 |